createdAt,value
2017-09-03T00:00:27.520Z,0
2017-09-03T00:01:28.091Z,0
2017-09-03T00:02:28.670Z,0
2017-09-03T00:03:29.246Z,0
2017-09-03T00:04:29.821Z,0
2017-09-03T00:05:30.392Z,0
2017-09-03T00:06:30.964Z,0
2017-09-03T00:07:31.536Z,0
2017-09-03T00:08:32.110Z,0
2017-09-03T00:09:32.684Z,0
2017-09-03T00:10:33.255Z,0
2017-09-03T00:11:33.827Z,0
2017-09-03T00:12:34.399Z,0
2017-09-03T00:13:34.970Z,0
2017-09-03T00:14:35.543Z,0
2017-09-03T00:15:36.115Z,0
2017-09-03T00:16:36.689Z,0
2017-09-03T00:17:37.271Z,0
2017-09-03T00:18:37.845Z,0
2017-09-03T00:19:38.418Z,0
2017-09-03T00:20:38.991Z,0
2017-09-03T00:21:39.564Z,0
2017-09-03T00:22:40.136Z,0
2017-09-03T00:23:40.710Z,0
2017-09-03T00:24:41.282Z,0
2017-09-03T00:25:41.853Z,0
2017-09-03T00:26:42.424Z,0
2017-09-03T00:27:42.997Z,0
2017-09-03T00:28:43.570Z,0
2017-09-03T00:29:44.142Z,0
2017-09-03T00:30:44.719Z,0
2017-09-03T00:31:45.298Z,0
2017-09-03T00:32:45.873Z,0
2017-09-03T00:33:46.444Z,0
2017-09-03T00:34:47.016Z,0
2017-09-03T00:35:47.587Z,0
2017-09-03T00:36:48.161Z,0
2017-09-03T00:37:48.745Z,0
2017-09-03T00:38:49.327Z,0
2017-09-03T00:39:49.899Z,0
2017-09-03T00:40:50.472Z,0
2017-09-03T00:41:51.046Z,0
2017-09-03T00:42:51.616Z,0
2017-09-03T00:43:52.190Z,0
2017-09-03T00:44:52.764Z,0
2017-09-03T00:45:53.337Z,0
2017-09-03T00:46:53.911Z,0
2017-09-03T00:47:54.485Z,0
2017-09-03T00:48:55.059Z,0
2017-09-03T00:49:55.630Z,0
2017-09-03T00:50:56.205Z,0
2017-09-03T00:51:56.778Z,0
2017-09-03T00:52:57.351Z,0
2017-09-03T00:53:57.922Z,0
2017-09-03T00:54:58.505Z,0
2017-09-03T00:55:59.080Z,0
2017-09-03T00:56:59.652Z,0
2017-09-03T00:58:00.225Z,0
2017-09-03T00:59:00.798Z,0
2017-09-03T01:00:01.370Z,0
2017-09-03T01:01:01.942Z,0
2017-09-03T01:02:02.525Z,0
2017-09-03T01:03:03.100Z,0
2017-09-03T01:04:03.671Z,0
2017-09-03T01:05:04.244Z,0
2017-09-03T01:06:04.817Z,0
2017-09-03T01:07:05.390Z,0
2017-09-03T01:08:05.972Z,0
2017-09-03T01:09:06.544Z,0
2017-09-03T01:10:07.120Z,0
2017-09-03T01:11:07.693Z,0
2017-09-03T01:12:08.268Z,0
2017-09-03T01:13:08.843Z,0
2017-09-03T01:14:09.426Z,0
2017-09-03T01:15:10.002Z,0
2017-09-03T01:16:10.575Z,0
2017-09-03T01:17:11.150Z,0
2017-09-03T01:18:11.722Z,0
2017-09-03T01:19:12.297Z,0
2017-09-03T01:20:12.868Z,0
2017-09-03T01:21:13.442Z,0
2017-09-03T01:22:14.016Z,0
2017-09-03T01:23:14.590Z,0
2017-09-03T01:24:15.165Z,0
2017-09-03T01:25:15.752Z,0
2017-09-03T01:26:16.325Z,0
2017-09-03T01:27:16.899Z,0
2017-09-03T01:28:17.473Z,0
2017-09-03T01:29:18.047Z,0
2017-09-03T01:30:18.621Z,0
2017-09-03T01:31:19.192Z,0
2017-09-03T01:32:19.766Z,0
2017-09-03T01:33:20.339Z,0
2017-09-03T01:34:20.914Z,0
2017-09-03T01:35:21.488Z,0
2017-09-03T01:36:22.064Z,0
2017-09-03T01:37:22.635Z,0
2017-09-03T01:38:23.210Z,0
2017-09-03T01:39:23.782Z,0
2017-09-03T01:40:24.357Z,0
2017-09-03T01:41:24.940Z,0
2017-09-03T01:42:25.513Z,0
2017-09-03T01:43:26.087Z,0
2017-09-03T01:44:26.659Z,0
2017-09-03T01:45:27.240Z,0
2017-09-03T01:46:27.814Z,0
2017-09-03T01:47:28.387Z,0
2017-09-03T01:48:28.962Z,0
2017-09-03T01:49:29.535Z,0
2017-09-03T01:50:30.107Z,0
2017-09-03T01:51:30.682Z,0
2017-09-03T01:52:31.254Z,0
2017-09-03T01:53:31.827Z,0
2017-09-03T01:54:32.398Z,0
2017-09-03T01:55:32.971Z,0
2017-09-03T01:56:33.543Z,0
2017-09-03T01:57:34.119Z,0
2017-09-03T01:58:34.693Z,0
2017-09-03T01:59:35.283Z,0
2017-09-03T02:00:35.853Z,0
2017-09-03T02:01:36.425Z,0
2017-09-03T02:02:36.999Z,0
2017-09-03T02:03:37.573Z,0
2017-09-03T02:04:38.148Z,0
2017-09-03T02:05:38.722Z,0
2017-09-03T02:06:39.293Z,0
2017-09-03T02:07:39.865Z,0
2017-09-03T02:08:40.437Z,0
2017-09-03T02:09:41.014Z,0
2017-09-03T02:10:41.594Z,0
2017-09-03T02:11:42.176Z,0
2017-09-03T02:12:42.751Z,0
2017-09-03T02:13:43.325Z,0
2017-09-03T02:14:43.900Z,0
2017-09-03T02:15:44.484Z,0
2017-09-03T02:16:45.057Z,0
2017-09-03T02:17:45.633Z,0
2017-09-03T02:18:46.205Z,0
2017-09-03T02:19:46.792Z,0
2017-09-03T02:20:47.366Z,0
2017-09-03T02:21:47.939Z,0
2017-09-03T02:22:48.511Z,0
2017-09-03T02:23:49.084Z,0
2017-09-03T02:24:49.659Z,0
2017-09-03T02:25:50.230Z,0
2017-09-03T02:26:50.804Z,0
2017-09-03T02:27:51.390Z,0
2017-09-03T02:28:51.962Z,0
2017-09-03T02:29:52.535Z,0
2017-09-03T02:30:53.108Z,0
2017-09-03T02:31:53.682Z,0
2017-09-03T02:32:54.255Z,0
2017-09-03T02:33:54.839Z,0
2017-09-03T02:34:55.412Z,0
2017-09-03T02:35:55.985Z,0
2017-09-03T02:36:56.568Z,0
2017-09-03T02:37:57.141Z,0
2017-09-03T02:38:57.715Z,0
2017-09-03T02:39:58.288Z,0
2017-09-03T02:40:58.861Z,0
2017-09-03T02:41:59.432Z,0
2017-09-03T02:43:00.006Z,0
2017-09-03T02:44:00.576Z,0
2017-09-03T02:45:01.150Z,0
2017-09-03T02:46:01.724Z,0
2017-09-03T02:47:02.298Z,0
2017-09-03T03:12:49.862Z,0
2017-09-03T03:13:50.435Z,0
2017-09-03T03:14:51.008Z,0
2017-09-03T03:15:51.578Z,0
2017-09-03T03:16:52.150Z,0
2017-09-03T03:17:52.722Z,0
2017-09-03T03:18:53.306Z,0
2017-09-03T03:19:53.878Z,0
2017-09-03T03:20:54.452Z,0
2017-09-03T03:21:55.025Z,0
2017-09-03T03:22:55.596Z,0
2017-09-03T03:23:56.168Z,0
2017-09-03T03:24:56.741Z,0
2017-09-03T03:25:57.311Z,0
2017-09-03T03:26:57.883Z,0
2017-09-03T03:27:58.454Z,0
2017-09-03T03:28:59.031Z,0
2017-09-03T03:29:59.614Z,0
2017-09-03T03:31:00.190Z,0
2017-09-03T03:32:00.764Z,0
2017-09-03T03:33:01.342Z,0
2017-09-03T03:34:01.916Z,0
2017-09-03T03:35:02.509Z,0
2017-09-03T03:36:03.080Z,0
2017-09-03T03:37:03.655Z,0
2017-09-03T03:38:04.230Z,0
2017-09-03T03:39:04.804Z,0
2017-09-03T03:40:05.383Z,0
2017-09-03T03:41:05.955Z,0
2017-09-03T03:42:06.528Z,0
2017-09-03T03:43:07.103Z,0
2017-09-03T03:44:07.678Z,0
2017-09-03T03:45:08.251Z,0
2017-09-03T03:46:08.826Z,0
2017-09-03T03:47:09.402Z,0
2017-09-03T03:48:09.977Z,0
2017-09-03T03:49:10.552Z,0
2017-09-03T03:50:11.126Z,0
2017-09-03T03:51:11.701Z,0
2017-09-03T03:52:12.275Z,0
2017-09-03T03:53:12.851Z,0
2017-09-03T03:54:13.441Z,0
2017-09-03T03:55:14.015Z,0
2017-09-03T03:56:14.589Z,0
2017-09-03T03:57:15.168Z,0
2017-09-03T03:58:15.741Z,0
2017-09-03T03:59:16.317Z,0
2017-09-03T04:00:16.891Z,0
2017-09-03T04:01:17.463Z,0
2017-09-03T04:02:18.039Z,0
2017-09-03T04:03:18.616Z,0
2017-09-03T04:04:19.191Z,0
2017-09-03T04:05:19.765Z,0
2017-09-03T04:06:20.339Z,0
2017-09-03T04:07:20.914Z,0
2017-09-03T04:08:21.489Z,0
2017-09-03T04:09:22.065Z,0
2017-09-03T04:10:22.638Z,0
2017-09-03T04:11:23.225Z,0
2017-09-03T04:12:23.801Z,0
2017-09-03T04:13:24.374Z,0
2017-09-03T04:14:24.951Z,0
2017-09-03T04:15:25.527Z,0
2017-09-03T04:16:26.101Z,0
2017-09-03T04:17:26.674Z,0
2017-09-03T04:18:27.249Z,0
2017-09-03T04:19:27.824Z,0
2017-09-03T04:20:28.410Z,0
2017-09-03T04:21:28.983Z,0
2017-09-03T04:22:29.560Z,0
2017-09-03T04:23:30.135Z,0
2017-09-03T04:24:30.708Z,0
2017-09-03T04:25:31.283Z,0
2017-09-03T04:26:31.861Z,0
2017-09-03T04:27:32.430Z,0
2017-09-03T04:28:33.007Z,4
2017-09-03T04:29:33.584Z,0
2017-09-03T04:30:34.171Z,0
2017-09-03T04:31:34.751Z,4
2017-09-03T04:32:35.322Z,0
2017-09-03T04:33:35.897Z,4
2017-09-03T04:34:36.484Z,4
2017-09-03T04:35:37.060Z,0
2017-09-03T04:36:37.648Z,4
2017-09-03T04:37:38.222Z,4
2017-09-03T04:38:38.799Z,4
2017-09-03T04:39:39.374Z,4
2017-09-03T04:40:39.947Z,4
2017-09-03T04:41:40.520Z,8
2017-09-03T04:42:41.096Z,8
2017-09-03T04:43:41.673Z,8
2017-09-03T04:44:42.247Z,8
2017-09-03T04:45:42.822Z,12
2017-09-03T04:46:43.397Z,12
2017-09-03T04:47:43.987Z,12
2017-09-03T04:48:44.563Z,16
2017-09-03T04:49:45.146Z,20
2017-09-03T04:50:45.734Z,16
2017-09-03T04:51:46.306Z,20
2017-09-03T04:52:46.882Z,24
2017-09-03T04:53:47.460Z,24
2017-09-03T04:54:48.036Z,28
2017-09-03T04:55:48.611Z,28
2017-09-03T04:56:49.185Z,28
2017-09-03T04:57:49.776Z,32
2017-09-03T04:58:50.351Z,36
2017-09-03T04:59:50.941Z,40
2017-09-03T05:00:51.518Z,36
2017-09-03T05:01:52.093Z,40
2017-09-03T05:02:52.669Z,44
2017-09-03T05:03:53.243Z,48
2017-09-03T05:04:53.821Z,48
2017-09-03T05:05:54.411Z,52
2017-09-03T05:06:54.988Z,56
2017-09-03T05:07:55.563Z,60
2017-09-03T05:08:56.138Z,60
2017-09-03T05:09:56.715Z,64
2017-09-03T05:10:57.290Z,68
2017-09-03T05:11:57.865Z,72
2017-09-03T05:12:58.439Z,72
2017-09-03T05:13:59.030Z,76
2017-09-03T05:14:59.608Z,80
2017-09-03T05:16:00.196Z,80
2017-09-03T05:17:00.773Z,84
2017-09-03T05:18:01.347Z,88
2017-09-03T05:19:01.925Z,92
2017-09-03T05:20:02.500Z,96
2017-09-03T05:21:03.075Z,96
2017-09-03T05:22:03.654Z,100
2017-09-03T05:23:04.229Z,104
2017-09-03T05:24:04.805Z,108
2017-09-03T05:25:05.393Z,112
2017-09-03T05:26:05.970Z,116
2017-09-03T05:27:06.548Z,116
2017-09-03T05:28:07.137Z,120
2017-09-03T05:29:07.714Z,124
2017-09-03T05:30:08.290Z,128
2017-09-03T05:31:08.868Z,132
2017-09-03T05:32:09.446Z,132
2017-09-03T05:33:10.022Z,136
2017-09-03T05:34:10.614Z,140
2017-09-03T05:35:11.191Z,140
2017-09-03T05:36:11.769Z,144
2017-09-03T05:37:12.345Z,148
2017-09-03T05:38:12.927Z,152
2017-09-03T05:39:13.514Z,156
2017-09-03T05:40:14.093Z,160
2017-09-03T05:41:14.668Z,160
2017-09-03T05:42:15.247Z,168
2017-09-03T05:43:15.825Z,168
2017-09-03T05:44:16.401Z,172
2017-09-03T05:45:16.980Z,176
2017-09-03T05:46:17.557Z,180
2017-09-03T05:47:18.133Z,184
2017-09-03T05:48:18.708Z,188
2017-09-03T05:49:19.300Z,188
2017-09-03T05:50:19.879Z,192
2017-09-03T05:51:20.455Z,196
2017-09-03T05:52:21.032Z,200
2017-09-03T05:53:21.610Z,204
2017-09-03T05:54:22.192Z,208
2017-09-03T05:55:22.763Z,212
2017-09-03T05:56:23.339Z,212
2017-09-03T05:57:23.917Z,216
2017-09-03T05:58:24.496Z,220
2017-09-03T05:59:25.073Z,224
2017-09-03T06:00:25.652Z,228
2017-09-03T06:01:26.231Z,232
2017-09-03T06:02:26.811Z,236
2017-09-03T06:03:27.389Z,240
2017-09-03T06:04:27.966Z,240
2017-09-03T06:05:28.562Z,248
2017-09-03T06:06:29.138Z,252
2017-09-03T06:07:29.713Z,252
2017-09-03T06:08:30.291Z,256
2017-09-03T06:09:30.871Z,264
2017-09-03T06:10:31.449Z,268
2017-09-03T06:11:32.027Z,268
2017-09-03T06:12:32.606Z,276
2017-09-03T06:13:33.184Z,276
2017-09-03T06:14:33.762Z,280
2017-09-03T06:15:34.342Z,284
2017-09-03T06:16:34.920Z,288
2017-09-03T06:17:35.500Z,288
2017-09-03T06:18:36.089Z,292
2017-09-03T06:19:36.680Z,300
2017-09-03T06:20:37.260Z,300
2017-09-03T06:21:37.839Z,304
2017-09-03T06:22:38.415Z,312
2017-09-03T06:23:38.996Z,312
2017-09-03T06:24:39.576Z,312
2017-09-03T06:25:40.153Z,316
2017-09-03T06:26:40.733Z,320
2017-09-03T06:27:41.310Z,320
2017-09-03T06:28:41.889Z,320
2017-09-03T06:29:42.469Z,324
2017-09-03T06:30:43.046Z,328
2017-09-03T06:31:43.624Z,332
2017-09-03T06:32:44.203Z,336
2017-09-03T06:33:44.780Z,336
2017-09-03T06:34:45.359Z,340
2017-09-03T06:35:45.940Z,344
2017-09-03T06:36:46.516Z,348
2017-09-03T06:37:47.096Z,352
2017-09-03T06:38:47.675Z,352
2017-09-03T06:39:48.261Z,352
2017-09-03T06:40:48.847Z,356
2017-09-03T06:41:49.426Z,352
2017-09-03T06:42:50.005Z,352
2017-09-03T06:43:50.586Z,356
2017-09-03T06:44:51.174Z,364
2017-09-03T06:45:51.742Z,364
2017-09-03T06:46:52.322Z,368
2017-09-03T06:47:52.901Z,372
2017-09-03T06:48:53.480Z,372
2017-09-03T06:49:54.060Z,380
2017-09-03T06:50:54.640Z,384
2017-09-03T06:51:55.218Z,384
2017-09-03T06:52:55.799Z,384
2017-09-03T06:53:56.377Z,388
2017-09-03T06:54:56.957Z,384
2017-09-03T06:55:57.536Z,392
2017-09-03T06:56:58.115Z,392
2017-09-03T06:57:58.694Z,400
2017-09-03T06:58:59.285Z,400
2017-09-03T06:59:59.867Z,400
2017-09-03T07:01:00.445Z,404
2017-09-03T07:02:01.028Z,404
2017-09-03T07:03:01.605Z,408
2017-09-03T07:04:02.183Z,412
2017-09-03T07:05:02.763Z,416
2017-09-03T07:06:03.342Z,416
2017-09-03T07:07:03.922Z,416
2017-09-03T07:08:04.516Z,416
2017-09-03T07:09:05.096Z,420
2017-09-03T07:10:05.674Z,420
2017-09-03T07:11:06.255Z,404
2017-09-03T07:12:06.833Z,420
2017-09-03T07:13:07.413Z,412
2017-09-03T07:14:07.995Z,420
2017-09-03T07:15:08.573Z,432
2017-09-03T07:16:09.153Z,436
2017-09-03T07:17:09.732Z,436
2017-09-03T07:18:10.325Z,436
2017-09-03T07:19:10.908Z,436
2017-09-03T07:20:11.483Z,436
2017-09-03T07:21:12.063Z,440
2017-09-03T07:22:12.642Z,440
2017-09-03T07:23:13.236Z,440
2017-09-03T07:24:13.816Z,448
2017-09-03T07:25:14.397Z,448
2017-09-03T07:26:14.976Z,456
2017-09-03T07:27:15.555Z,456
2017-09-03T07:28:16.137Z,456
2017-09-03T07:29:16.719Z,460
2017-09-03T07:30:17.296Z,460
2017-09-03T07:31:17.887Z,464
2017-09-03T07:32:18.468Z,468
2017-09-03T07:33:19.048Z,472
2017-09-03T07:34:19.643Z,472
2017-09-03T07:35:20.224Z,476
2017-09-03T07:36:20.806Z,476
2017-09-03T07:37:21.402Z,476
2017-09-03T07:38:21.981Z,480
2017-09-03T07:39:22.562Z,480
2017-09-03T07:40:23.147Z,484
2017-09-03T07:41:23.723Z,488
2017-09-03T07:42:24.303Z,492
2017-09-03T07:43:24.884Z,492
2017-09-03T07:44:25.467Z,496
2017-09-03T07:45:26.046Z,496
2017-09-03T07:46:26.626Z,496
2017-09-03T07:47:27.209Z,500
2017-09-03T07:48:27.790Z,500
2017-09-03T07:49:28.370Z,500
2017-09-03T07:50:28.950Z,500
2017-09-03T07:51:29.546Z,504
2017-09-03T07:52:30.127Z,504
2017-09-03T07:53:30.708Z,508
2017-09-03T07:54:31.290Z,508
2017-09-03T07:55:31.870Z,512
2017-09-03T07:56:32.452Z,516
2017-09-03T07:57:33.035Z,512
2017-09-03T07:58:33.616Z,516
2017-09-03T07:59:34.197Z,520
2017-09-03T08:00:34.782Z,520
2017-09-03T08:01:35.364Z,524
2017-09-03T08:02:35.946Z,524
2017-09-03T08:03:36.522Z,528
2017-09-03T08:04:37.105Z,528
2017-09-03T08:05:37.686Z,532
2017-09-03T08:06:38.268Z,528
2017-09-03T08:07:38.863Z,536
2017-09-03T08:08:39.445Z,532
2017-09-03T08:09:40.027Z,536
2017-09-03T08:10:40.608Z,536
2017-09-03T08:11:41.191Z,540
2017-09-03T08:12:41.773Z,544
2017-09-03T08:13:42.352Z,544
2017-09-03T08:14:42.935Z,540
2017-09-03T08:15:43.518Z,544
2017-09-03T08:16:44.098Z,548
2017-09-03T08:17:44.680Z,548
2017-09-03T08:18:45.262Z,548
2017-09-03T08:19:45.843Z,552
2017-09-03T08:20:46.426Z,556
2017-09-03T08:21:47.010Z,560
2017-09-03T08:22:47.603Z,556
2017-09-03T08:23:48.186Z,560
2017-09-03T08:24:48.782Z,560
2017-09-03T08:25:49.364Z,560
2017-09-03T08:26:49.951Z,564
2017-09-03T08:27:50.530Z,564
2017-09-03T08:28:51.112Z,568
2017-09-03T08:29:51.695Z,568
2017-09-03T08:30:52.278Z,568
2017-09-03T08:31:52.858Z,572
2017-09-03T08:32:53.442Z,572
2017-09-03T08:33:54.038Z,576
2017-09-03T08:34:54.620Z,576
2017-09-03T08:35:55.217Z,576
2017-09-03T08:36:55.799Z,580
2017-09-03T08:37:56.381Z,580
2017-09-03T08:38:56.969Z,584
2017-09-03T08:39:57.546Z,576
2017-09-03T08:40:58.128Z,576
2017-09-03T08:41:58.712Z,580
2017-09-03T08:42:59.310Z,580
2017-09-03T08:43:59.893Z,576
2017-09-03T08:45:00.475Z,580
2017-09-03T08:46:01.059Z,584
2017-09-03T08:47:01.656Z,584
2017-09-03T08:48:02.238Z,584
2017-09-03T08:49:02.822Z,588
2017-09-03T08:50:03.418Z,592
2017-09-03T08:51:04.000Z,592
2017-09-03T08:52:04.595Z,596
2017-09-03T08:53:05.180Z,600
2017-09-03T08:54:05.762Z,600
2017-09-03T08:55:06.346Z,596
2017-09-03T08:56:06.940Z,600
2017-09-03T08:57:07.523Z,604
2017-09-03T08:58:08.112Z,604
2017-09-03T08:59:08.728Z,608
2017-09-03T09:00:09.320Z,612
2017-09-03T09:01:09.902Z,612
2017-09-03T09:02:10.486Z,616
2017-09-03T09:03:11.074Z,616
2017-09-03T09:04:11.653Z,620
2017-09-03T09:05:12.234Z,624
2017-09-03T09:06:12.817Z,624
2017-09-03T09:07:13.402Z,628
2017-09-03T09:08:13.990Z,628
2017-09-03T09:09:14.565Z,632
2017-09-03T09:10:15.151Z,628
2017-09-03T09:11:15.732Z,628
2017-09-03T09:12:16.314Z,632
2017-09-03T09:13:16.898Z,636
2017-09-03T09:14:17.493Z,640
2017-09-03T09:15:18.075Z,640
2017-09-03T09:16:18.658Z,640
2017-09-03T09:17:19.242Z,644
2017-09-03T09:18:19.824Z,648
2017-09-03T09:19:20.411Z,648
2017-09-03T09:20:20.991Z,648
2017-09-03T09:21:21.573Z,648
2017-09-03T09:22:22.157Z,652
2017-09-03T09:23:22.739Z,652
2017-09-03T09:24:23.320Z,656
2017-09-03T09:25:23.906Z,660
2017-09-03T09:26:24.501Z,660
2017-09-03T09:27:25.084Z,664
2017-09-03T09:28:25.670Z,664
2017-09-03T09:29:26.255Z,668
2017-09-03T09:30:26.834Z,672
2017-09-03T09:31:27.420Z,668
2017-09-03T09:32:28.000Z,668
2017-09-03T09:33:28.581Z,668
2017-09-03T09:34:29.166Z,672
2017-09-03T09:35:29.748Z,672
2017-09-03T09:36:30.331Z,672
2017-09-03T09:37:30.914Z,676
2017-09-03T09:38:31.497Z,676
2017-09-03T09:39:32.081Z,680
2017-09-03T09:40:32.680Z,684
2017-09-03T09:41:33.265Z,692
2017-09-03T09:42:33.846Z,696
2017-09-03T09:43:34.430Z,696
2017-09-03T09:44:35.013Z,700
2017-09-03T09:45:35.596Z,696
2017-09-03T09:46:36.178Z,700
2017-09-03T09:47:36.764Z,704
2017-09-03T09:48:37.386Z,704
2017-09-03T09:49:37.969Z,708
2017-09-03T09:50:38.551Z,716
2017-09-03T09:51:39.133Z,712
2017-09-03T09:52:39.718Z,720
2017-09-03T09:53:40.302Z,712
2017-09-03T09:54:40.887Z,728
2017-09-03T09:55:41.468Z,740
2017-09-03T09:56:42.051Z,756
2017-09-03T09:57:42.636Z,768
2017-09-03T09:58:43.219Z,764
2017-09-03T09:59:43.802Z,768
2017-09-03T10:00:44.386Z,780
2017-09-03T10:01:44.968Z,796
2017-09-03T10:02:45.551Z,800
2017-09-03T10:03:46.135Z,812
2017-09-03T10:04:46.717Z,808
2017-09-03T10:05:47.299Z,768
2017-09-03T10:06:47.882Z,796
2017-09-03T10:07:48.466Z,832
2017-09-03T10:08:49.049Z,620
2017-09-03T10:09:49.635Z,580
2017-09-03T10:10:50.217Z,844
2017-09-03T10:11:50.815Z,840
2017-09-03T10:12:51.400Z,840
2017-09-03T10:13:51.985Z,872
2017-09-03T10:14:52.583Z,896
2017-09-03T10:15:53.166Z,908
2017-09-03T10:16:53.763Z,920
2017-09-03T10:17:54.348Z,920
2017-09-03T10:18:54.933Z,924
2017-09-03T10:19:55.515Z,616
2017-09-03T10:20:56.099Z,880
2017-09-03T10:21:56.684Z,948
2017-09-03T10:22:57.265Z,960
2017-09-03T10:23:57.849Z,964
2017-09-03T10:24:58.431Z,956
2017-09-03T10:25:59.014Z,964
2017-09-03T10:26:59.597Z,972
2017-09-03T10:28:00.182Z,968
2017-09-03T10:29:00.766Z,980
2017-09-03T10:30:01.350Z,980
2017-09-03T10:31:01.934Z,980
2017-09-03T10:32:02.519Z,984
2017-09-03T10:33:03.116Z,984
2017-09-03T10:34:03.698Z,980
2017-09-03T10:35:04.281Z,976
2017-09-03T10:36:04.867Z,976
2017-09-03T10:37:05.455Z,1000
2017-09-03T10:38:06.036Z,1024
2017-09-03T10:39:06.620Z,1000
2017-09-03T10:40:07.204Z,988
2017-09-03T10:41:07.791Z,964
2017-09-03T10:42:08.376Z,944
2017-09-03T10:43:08.967Z,932
2017-09-03T10:44:09.543Z,916
2017-09-03T10:45:10.129Z,596
2017-09-03T10:46:10.713Z,588
2017-09-03T10:47:11.298Z,608
2017-09-03T10:48:11.882Z,624
2017-09-03T10:49:12.466Z,636
2017-09-03T10:50:13.050Z,640
2017-09-03T10:51:13.633Z,808
2017-09-03T10:52:14.219Z,724
2017-09-03T10:53:14.804Z,676
2017-09-03T10:54:15.387Z,752
2017-09-03T10:55:15.976Z,1008
2017-09-03T10:56:16.557Z,1048
2017-09-03T10:57:17.143Z,1072
2017-09-03T10:58:17.729Z,1060
2017-09-03T10:59:18.314Z,1052
2017-09-03T11:00:18.900Z,1052
2017-09-03T11:01:19.484Z,1052
2017-09-03T11:02:20.071Z,1056
2017-09-03T11:03:20.655Z,1056
2017-09-03T11:04:21.240Z,1060
2017-09-03T11:05:21.834Z,1040
2017-09-03T11:06:22.412Z,1016
2017-09-03T11:07:23.009Z,768
2017-09-03T11:08:23.594Z,784
2017-09-03T11:09:24.180Z,1008
2017-09-03T11:10:24.766Z,992
2017-09-03T11:11:25.350Z,968
2017-09-03T11:12:25.934Z,952
2017-09-03T11:13:26.520Z,960
2017-09-03T11:14:27.105Z,956
2017-09-03T11:15:27.688Z,976
2017-09-03T11:16:28.275Z,1012
2017-09-03T11:17:28.860Z,1028
2017-09-03T11:18:29.446Z,1044
2017-09-03T11:19:30.032Z,1052
2017-09-03T11:20:30.619Z,1072
2017-09-03T11:21:31.205Z,1100
2017-09-03T11:22:31.804Z,1120
2017-09-03T11:23:32.390Z,1120
2017-09-03T11:24:32.977Z,1116
2017-09-03T11:25:33.563Z,1128
2017-09-03T11:26:34.148Z,832
2017-09-03T11:27:34.737Z,1048
2017-09-03T11:28:35.318Z,964
2017-09-03T11:29:35.903Z,772
2017-09-03T11:30:36.488Z,756
2017-09-03T11:31:37.072Z,756
2017-09-03T11:32:37.657Z,784
2017-09-03T11:33:38.241Z,876
2017-09-03T11:34:38.829Z,1064
2017-09-03T11:35:39.413Z,1076
2017-09-03T11:36:40.000Z,1052
2017-09-03T11:37:40.585Z,904
2017-09-03T11:38:41.171Z,708
2017-09-03T11:39:41.755Z,676
2017-09-03T11:40:42.355Z,660
2017-09-03T11:41:42.953Z,660
2017-09-03T11:42:43.537Z,656
2017-09-03T11:43:44.134Z,660
2017-09-03T11:44:44.719Z,668
2017-09-03T11:45:45.303Z,696
2017-09-03T11:46:45.887Z,732
2017-09-03T11:47:46.472Z,836
2017-09-03T11:48:47.057Z,848
2017-09-03T11:49:47.642Z,904
2017-09-03T11:50:48.229Z,1064
2017-09-03T11:51:48.814Z,1120
2017-09-03T11:52:49.398Z,1100
2017-09-03T11:53:49.986Z,1076
2017-09-03T11:54:50.581Z,1048
2017-09-03T11:55:51.168Z,1036
2017-09-03T11:56:51.754Z,1040
2017-09-03T11:57:52.340Z,1040
2017-09-03T11:58:52.926Z,1060
2017-09-03T11:59:53.511Z,1068
2017-09-03T12:00:54.112Z,1092
2017-09-03T12:01:54.696Z,836
2017-09-03T12:02:55.280Z,840
2017-09-03T12:03:55.866Z,856
2017-09-03T12:04:56.450Z,876
2017-09-03T12:05:57.034Z,876
2017-09-03T12:06:57.620Z,908
2017-09-03T12:07:58.222Z,1104
2017-09-03T12:08:58.821Z,1132
2017-09-03T12:09:59.406Z,1144
2017-09-03T12:10:59.992Z,1156
2017-09-03T12:12:00.577Z,1140
2017-09-03T12:13:01.165Z,1108
2017-09-03T12:14:01.749Z,1048
2017-09-03T12:15:02.333Z,808
2017-09-03T12:16:02.920Z,772
2017-09-03T12:17:03.505Z,740
2017-09-03T12:18:04.089Z,712
2017-09-03T12:19:04.674Z,712
2017-09-03T12:20:05.257Z,720
2017-09-03T12:21:05.842Z,732
2017-09-03T12:22:06.425Z,760
2017-09-03T12:23:07.009Z,792
2017-09-03T12:24:07.592Z,828
2017-09-03T12:25:08.178Z,1068
2017-09-03T12:26:08.763Z,1116
2017-09-03T12:27:09.349Z,1136
2017-09-03T12:28:09.934Z,1184
2017-09-03T12:29:10.538Z,1232
2017-09-03T12:30:11.124Z,1264
2017-09-03T12:31:11.706Z,1288
2017-09-03T12:32:12.292Z,1296
2017-09-03T12:33:12.877Z,1296
2017-09-03T12:34:13.463Z,1308
2017-09-03T12:35:14.060Z,1340
2017-09-03T12:36:14.660Z,1344
2017-09-03T12:37:15.244Z,1344
2017-09-03T12:38:15.829Z,1356
2017-09-03T12:39:16.415Z,1360
2017-09-03T12:40:17.014Z,1352
2017-09-03T12:41:17.614Z,1348
2017-09-03T12:42:18.200Z,1356
2017-09-03T12:43:18.785Z,1368
2017-09-03T12:44:19.371Z,1384
2017-09-03T12:45:19.957Z,1392
2017-09-03T12:46:20.557Z,1392
2017-09-03T12:47:21.141Z,1364
2017-09-03T12:48:21.725Z,1384
2017-09-03T12:49:22.312Z,1388
2017-09-03T12:50:22.896Z,1420
2017-09-03T12:51:23.480Z,1420
2017-09-03T12:52:24.069Z,1396
2017-09-03T12:53:24.653Z,1400
2017-09-03T12:54:25.240Z,1400
2017-09-03T12:55:25.826Z,1412
2017-09-03T12:56:26.413Z,1416
2017-09-03T12:57:26.999Z,1416
2017-09-03T12:58:27.583Z,1400
2017-09-03T12:59:28.170Z,1212
2017-09-03T13:00:28.755Z,1180
2017-09-03T13:01:29.342Z,1188
2017-09-03T13:02:29.928Z,1208
2017-09-03T13:03:30.513Z,1384
2017-09-03T13:04:31.099Z,1436
2017-09-03T13:05:31.685Z,1412
2017-09-03T13:06:32.272Z,1464
2017-09-03T13:07:32.859Z,1508
2017-09-03T13:08:33.444Z,1548
2017-09-03T13:09:34.033Z,1576
2017-09-03T13:10:34.620Z,1584
2017-09-03T13:11:35.206Z,1564
2017-09-03T13:12:35.792Z,1540
2017-09-03T13:13:36.379Z,1520
2017-09-03T13:14:36.979Z,1448
2017-09-03T13:15:37.566Z,1396
2017-09-03T13:16:38.152Z,1416
2017-09-03T13:17:38.739Z,1448
2017-09-03T13:18:39.334Z,1452
2017-09-03T13:19:39.923Z,1456
2017-09-03T13:20:40.508Z,1448
2017-09-03T13:21:41.109Z,1436
2017-09-03T13:22:41.695Z,1404
2017-09-03T13:23:42.283Z,1396
2017-09-03T13:24:42.886Z,1396
2017-09-03T13:25:43.468Z,1404
2017-09-03T13:26:44.054Z,1416
2017-09-03T13:27:44.639Z,1424
2017-09-03T13:28:45.228Z,1412
2017-09-03T13:29:45.813Z,1396
2017-09-03T13:30:46.399Z,1380
2017-09-03T13:31:46.987Z,1372
2017-09-03T13:32:47.572Z,1364
2017-09-03T13:33:48.171Z,1368
2017-09-03T13:34:48.757Z,1380
2017-09-03T13:35:49.344Z,1372
2017-09-03T13:36:49.930Z,1368
2017-09-03T13:37:50.516Z,1348
2017-09-03T13:38:51.103Z,1332
2017-09-03T13:39:51.704Z,1320
2017-09-03T13:40:52.290Z,1324
2017-09-03T13:41:52.876Z,1324
2017-09-03T13:42:53.461Z,1084
2017-09-03T13:43:54.061Z,972
2017-09-03T13:44:54.645Z,948
2017-09-03T13:45:55.233Z,944
2017-09-03T13:46:55.816Z,976
2017-09-03T13:47:56.402Z,1312
2017-09-03T13:48:56.989Z,1340
2017-09-03T13:49:57.574Z,1384
2017-09-03T13:50:58.160Z,1396
2017-09-03T13:51:58.746Z,1408
2017-09-03T13:52:59.330Z,1420
2017-09-03T13:53:59.915Z,1444
2017-09-03T13:55:00.500Z,1448
2017-09-03T13:56:01.089Z,1444
2017-09-03T13:57:01.672Z,1060
2017-09-03T13:58:02.257Z,1028
2017-09-03T13:59:02.845Z,1004
2017-09-03T14:00:03.429Z,976
2017-09-03T14:01:04.015Z,972
2017-09-03T14:02:04.599Z,988
2017-09-03T14:03:05.185Z,1032
2017-09-03T14:04:05.770Z,1440
2017-09-03T14:05:06.356Z,1472
2017-09-03T14:06:06.942Z,1108
2017-09-03T14:07:07.526Z,1096
2017-09-03T14:08:08.110Z,1464
2017-09-03T14:09:08.699Z,1260
2017-09-03T14:10:09.281Z,1432
2017-09-03T14:11:09.869Z,1380
2017-09-03T14:12:10.476Z,1360
2017-09-03T14:13:11.052Z,1364
2017-09-03T14:14:11.637Z,1376
2017-09-03T14:15:12.222Z,1388
2017-09-03T14:16:12.808Z,1392
2017-09-03T14:17:13.394Z,1380
2017-09-03T14:18:13.979Z,1024
2017-09-03T14:19:14.564Z,1292
2017-09-03T14:20:15.151Z,1352
2017-09-03T14:21:15.734Z,1360
2017-09-03T14:22:16.334Z,1376
2017-09-03T14:23:16.919Z,1356
2017-09-03T14:24:17.505Z,1344
2017-09-03T14:25:18.089Z,1340
2017-09-03T14:26:18.677Z,1332
2017-09-03T14:27:19.261Z,1296
2017-09-03T14:28:19.848Z,1308
2017-09-03T14:29:20.433Z,1288
2017-09-03T14:30:21.015Z,1280
2017-09-03T14:31:21.614Z,1284
2017-09-03T14:32:22.201Z,1256